Terminal Aerodrome Forecast
Issued by NWS Corpus Christi, TX

Home | Current Version | Previous Version | Text Only | Print | Product List | Glossary On
Versions: 1 2 3 4 5 6 7 8 9 10 11 12
920
FTUS44 KCRP 150525
TAFVCT
TAF
KVCT 150525Z 1506/1606 01007KT P6SM BKN120 OVC220
     FM150700 01015G22KT P6SM SCT035 OVC100
     FM150900 36013KT P6SM -RA SCT030 OVC060
      TEMPO 1510/1514 6SM -RA BR BKN025 OVC050
     FM151500 01010KT P6SM OVC050
     FM160200 27004KT P6SM OVC100=

USA.gov is the U.S. government's official web portal to all federal, state and local government web resources and services.